sensor_id;sensor_type;location;lat;lon;timestamp;pressure;altitude;pressure_sealevel;temperature;humidity
21234;BME280;10774;42.178;26.578;2023-08-07T00:00:30;99104.13;;;22.28;100.00
21234;BME280;10774;42.178;26.578;2023-08-07T00:02:55;99101.72;;;22.40;100.00
21234;BME280;10774;42.178;26.578;2023-08-07T00:05:21;99096.25;;;22.61;100.00
21234;BME280;10774;42.178;26.578;2023-08-07T00:07:46;99097.97;;;22.62;100.00
21234;BME280;10774;42.178;26.578;2023-08-07T00:10:12;99108.25;;;22.60;100.00
21234;BME280;10774;42.178;26.578;2023-08-07T00:12:38;99105.25;;;22.55;100.00
21234;BME280;10774;42.178;26.578;2023-08-07T00:15:04;99107.03;;;22.63;100.00
21234;BME280;10774;42.178;26.578;2023-08-07T00:17:29;99107.06;;;22.69;100.00
21234;BME280;10774;42.178;26.578;2023-08-07T00:19:55;99107.59;;;22.37;100.00
21234;BME280;10774;42.178;26.578;2023-08-07T00:22:20;99108.75;;;22.28;100.00
21234;BME280;10774;42.178;26.578;2023-08-07T00:24:46;99102.56;;;22.40;100.00
21234;BME280;10774;42.178;26.578;2023-08-07T00:27:11;99116.34;;;22.47;100.00
21234;BME280;10774;42.178;26.578;2023-08-07T00:29:38;99106.41;;;22.46;100.00
21234;BME280;10774;42.178;26.578;2023-08-07T00:32:04;99116.59;;;22.52;100.00
21234;BME280;10774;42.178;26.578;2023-08-07T00:34:30;99101.09;;;22.59;100.00
21234;BME280;10774;42.178;26.578;2023-08-07T00:36:55;99121.81;;;22.68;100.00
21234;BME280;10774;42.178;26.578;2023-08-07T00:39:20;99112.88;;;22.38;100.00
21234;BME280;10774;42.178;26.578;2023-08-07T00:41:46;99129.16;;;22.25;100.00
21234;BME280;10774;42.178;26.578;2023-08-07T00:44:12;99129.84;;;22.34;100.00
21234;BME280;10774;42.178;26.578;2023-08-07T00:46:37;99127.84;;;22.21;100.00
21234;BME280;10774;42.178;26.578;2023-08-07T00:49:05;99119.31;;;22.31;100.00
21234;BME280;10774;42.178;26.578;2023-08-07T00:51:31;99135.19;;;22.21;100.00
21234;BME280;10774;42.178;26.578;2023-08-07T00:53:56;99128.78;;;22.13;100.00
21234;BME280;10774;42.178;26.578;2023-08-07T00:56:23;99132.72;;;22.26;100.00
21234;BME280;10774;42.178;26.578;2023-08-07T00:58:49;99124.25;;;22.21;100.00
21234;BME280;10774;42.178;26.578;2023-08-07T01:01:15;99144.94;;;22.30;100.00
21234;BME280;10774;42.178;26.578;2023-08-07T01:03:41;99160.97;;;22.33;100.00
21234;BME280;10774;42.178;26.578;2023-08-07T01:06:06;99156.31;;;22.48;100.00
21234;BME280;10774;42.178;26.578;2023-08-07T01:08:32;99176.31;;;22.49;100.00
21234;BME280;10774;42.178;26.578;2023-08-07T01:11:23;99158.38;;;22.10;100.00
21234;BME280;10774;42.178;26.578;2023-08-07T01:19:02;99162.91;;;21.88;100.00
21234;BME280;10774;42.178;26.578;2023-08-07T01:21:32;99173.94;;;21.95;100.00
21234;BME280;10774;42.178;26.578;2023-08-07T01:23:57;99178.72;;;22.07;100.00
21234;BME280;10774;42.178;26.578;2023-08-07T01:26:23;99171.50;;;22.00;100.00
21234;BME280;10774;42.178;26.578;2023-08-07T01:29:14;99179.28;;;21.88;100.00
21234;BME280;10774;42.178;26.578;2023-08-07T01:31:43;99175.16;;;21.92;100.00
21234;BME280;10774;42.178;26.578;2023-08-07T01:34:11;99192.50;;;21.99;100.00
21234;BME280;10774;42.178;26.578;2023-08-07T01:36:40;99185.72;;;21.65;100.00
21234;BME280;10774;42.178;26.578;2023-08-07T01:39:06;99190.69;;;21.91;100.00
21234;BME280;10774;42.178;26.578;2023-08-07T01:41:32;99199.56;;;21.79;100.00
21234;BME280;10774;42.178;26.578;2023-08-07T01:43:58;99190.88;;;21.60;100.00
21234;BME280;10774;42.178;26.578;2023-08-07T01:46:24;99199.47;;;21.57;100.00
21234;BME280;10774;42.178;26.578;2023-08-07T01:48:49;99196.81;;;21.49;100.00
21234;BME280;10774;42.178;26.578;2023-08-07T01:51:15;99200.19;;;21.36;100.00
21234;BME280;10774;42.178;26.578;2023-08-07T01:53:40;99204.34;;;21.47;100.00
21234;BME280;10774;42.178;26.578;2023-08-07T01:56:06;99203.09;;;21.35;100.00
21234;BME280;10774;42.178;26.578;2023-08-07T01:58:31;99198.78;;;21.55;100.00
21234;BME280;10774;42.178;26.578;2023-08-07T02:00:57;99204.44;;;21.54;100.00
21234;BME280;10774;42.178;26.578;2023-08-07T02:03:22;99204.22;;;21.40;100.00
21234;BME280;10774;42.178;26.578;2023-08-07T02:05:47;99212.16;;;21.50;100.00
21234;BME280;10774;42.178;26.578;2023-08-07T02:08:13;99218.66;;;21.49;100.00
21234;BME280;10774;42.178;26.578;2023-08-07T02:10:39;99220.53;;;21.49;100.00
21234;BME280;10774;42.178;26.578;2023-08-07T02:13:04;99221.97;;;21.22;100.00
21234;BME280;10774;42.178;26.578;2023-08-07T02:15:30;99237.75;;;21.11;100.00
21234;BME280;10774;42.178;26.578;2023-08-07T02:17:55;99237.72;;;21.34;100.00
21234;BME280;10774;42.178;26.578;2023-08-07T02:20:21;99240.16;;;21.52;100.00
21234;BME280;10774;42.178;26.578;2023-08-07T02:22:46;99226.47;;;21.37;100.00
21234;BME280;10774;42.178;26.578;2023-08-07T02:25:11;99232.25;;;21.57;100.00
21234;BME280;10774;42.178;26.578;2023-08-07T02:27:37;99239.97;;;21.69;100.00
21234;BME280;10774;42.178;26.578;2023-08-07T02:30:03;99237.31;;;21.60;100.00
21234;BME280;10774;42.178;26.578;2023-08-07T02:32:29;99244.81;;;21.44;100.00
21234;BME280;10774;42.178;26.578;2023-08-07T02:34:55;99235.91;;;21.27;100.00
21234;BME280;10774;42.178;26.578;2023-08-07T02:37:20;99248.88;;;21.25;100.00
21234;BME280;10774;42.178;26.578;2023-08-07T02:39:46;99248.03;;;21.24;100.00
21234;BME280;10774;42.178;26.578;2023-08-07T02:42:11;99265.16;;;21.41;100.00
21234;BME280;10774;42.178;26.578;2023-08-07T02:44:37;99259.31;;;21.21;100.00
21234;BME280;10774;42.178;26.578;2023-08-07T02:47:03;99261.38;;;21.19;100.00
21234;BME280;10774;42.178;26.578;2023-08-07T02:49:28;99267.50;;;21.21;100.00
21234;BME280;10774;42.178;26.578;2023-08-07T02:51:53;99268.41;;;21.13;100.00
21234;BME280;10774;42.178;26.578;2023-08-07T02:54:19;99278.19;;;21.08;100.00
21234;BME280;10774;42.178;26.578;2023-08-07T02:56:44;99291.97;;;21.14;100.00
21234;BME280;10774;42.178;26.578;2023-08-07T02:59:10;99290.84;;;21.24;100.00
21234;BME280;10774;42.178;26.578;2023-08-07T03:01:35;99289.16;;;21.23;100.00
21234;BME280;10774;42.178;26.578;2023-08-07T03:04:01;99293.22;;;21.04;100.00
21234;BME280;10774;42.178;26.578;2023-08-07T03:06:26;99301.22;;;21.05;100.00
21234;BME280;10774;42.178;26.578;2023-08-07T03:08:51;99296.31;;;21.24;100.00
21234;BME280;10774;42.178;26.578;2023-08-07T03:11:17;99285.38;;;21.32;100.00
21234;BME280;10774;42.178;26.578;2023-08-07T03:13:42;99294.50;;;21.39;100.00
21234;BME280;10774;42.178;26.578;2023-08-07T03:16:09;99297.78;;;21.34;100.00
21234;BME280;10774;42.178;26.578;2023-08-07T03:18:35;99301.31;;;21.20;100.00
21234;BME280;10774;42.178;26.578;2023-08-07T03:21:00;99312.28;;;21.12;100.00
21234;BME280;10774;42.178;26.578;2023-08-07T03:23:28;99301.16;;;21.13;100.00
21234;BME280;10774;42.178;26.578;2023-08-07T03:26:10;99296.69;;;21.21;100.00
21234;BME280;10774;42.178;26.578;2023-08-07T03:28:36;99307.69;;;21.35;100.00
21234;BME280;10774;42.178;26.578;2023-08-07T03:31:02;99307.88;;;21.34;100.00
21234;BME280;10774;42.178;26.578;2023-08-07T03:33:28;99313.78;;;21.60;100.00
21234;BME280;10774;42.178;26.578;2023-08-07T03:35:54;99310.59;;;21.72;100.00
21234;BME280;10774;42.178;26.578;2023-08-07T03:38:19;99305.44;;;21.77;100.00
21234;BME280;10774;42.178;26.578;2023-08-07T03:40:45;99311.09;;;21.75;100.00
21234;BME280;10774;42.178;26.578;2023-08-07T03:43:10;99312.00;;;21.53;100.00
21234;BME280;10774;42.178;26.578;2023-08-07T03:45:36;99312.09;;;21.59;100.00
21234;BME280;10774;42.178;26.578;2023-08-07T03:48:01;99312.88;;;21.30;100.00
21234;BME280;10774;42.178;26.578;2023-08-07T03:50:26;99322.41;;;21.49;100.00
21234;BME280;10774;42.178;26.578;2023-08-07T03:52:52;99313.44;;;21.63;100.00
21234;BME280;10774;42.178;26.578;2023-08-07T03:55:17;99316.75;;;21.36;100.00
21234;BME280;10774;42.178;26.578;2023-08-07T03:57:43;99326.69;;;21.52;100.00
21234;BME280;10774;42.178;26.578;2023-08-07T04:00:09;99324.56;;;21.77;100.00
21234;BME280;10774;42.178;26.578;2023-08-07T04:02:35;99331.94;;;21.91;100.00
21234;BME280;10774;42.178;26.578;2023-08-07T04:05:00;99337.84;;;22.17;100.00
21234;BME280;10774;42.178;26.578;2023-08-07T04:07:25;99345.97;;;22.26;100.00
21234;BME280;10774;42.178;26.578;2023-08-07T04:09:51;99330.41;;;22.41;100.00
21234;BME280;10774;42.178;26.578;2023-08-07T04:12:16;99334.44;;;22.45;100.00
21234;BME280;10774;42.178;26.578;2023-08-07T04:14:42;99328.88;;;22.53;100.00
21234;BME280;10774;42.178;26.578;2023-08-07T04:17:07;99325.69;;;22.50;100.00
21234;BME280;10774;42.178;26.578;2023-08-07T04:19:33;99333.59;;;22.59;100.00
21234;BME280;10774;42.178;26.578;2023-08-07T04:21:58;99327.06;;;22.60;100.00
21234;BME280;10774;42.178;26.578;2023-08-07T04:24:24;99339.34;;;22.64;100.00
21234;BME280;10774;42.178;26.578;2023-08-07T04:26:50;99356.13;;;22.91;100.00
21234;BME280;10774;42.178;26.578;2023-08-07T04:29:15;99344.81;;;22.94;100.00
21234;BME280;10774;42.178;26.578;2023-08-07T04:31:40;99345.22;;;23.12;100.00
21234;BME280;10774;42.178;26.578;2023-08-07T04:34:06;99349.31;;;23.23;100.00
21234;BME280;10774;42.178;26.578;2023-08-07T04:36:31;99343.28;;;23.28;100.00
21234;BME280;10774;42.178;26.578;2023-08-07T04:38:56;99329.19;;;23.31;100.00
21234;BME280;10774;42.178;26.578;2023-08-07T04:41:22;99340.94;;;22.74;100.00
21234;BME280;10774;42.178;26.578;2023-08-07T04:43:48;99359.34;;;22.50;100.00
21234;BME280;10774;42.178;26.578;2023-08-07T04:46:14;99361.50;;;22.40;100.00
21234;BME280;10774;42.178;26.578;2023-08-07T04:48:40;99366.69;;;22.35;100.00
21234;BME280;10774;42.178;26.578;2023-08-07T04:51:05;99375.09;;;22.33;100.00
21234;BME280;10774;42.178;26.578;2023-08-07T04:53:31;99369.84;;;22.09;100.00
21234;BME280;10774;42.178;26.578;2023-08-07T04:55:56;99358.03;;;22.16;100.00
21234;BME280;10774;42.178;26.578;2023-08-07T04:58:22;99371.25;;;22.57;100.00
21234;BME280;10774;42.178;26.578;2023-08-07T05:00:47;99371.38;;;22.85;100.00
21234;BME280;10774;42.178;26.578;2023-08-07T05:03:13;99367.47;;;23.09;100.00
21234;BME280;10774;42.178;26.578;2023-08-07T05:05:40;99353.31;;;23.20;100.00
21234;BME280;10774;42.178;26.578;2023-08-07T05:08:06;99363.75;;;23.32;100.00
21234;BME280;10774;42.178;26.578;2023-08-07T05:10:31;99372.25;;;23.37;100.00
21234;BME280;10774;42.178;26.578;2023-08-07T05:12:56;99364.53;;;23.26;100.00
21234;BME280;10774;42.178;26.578;2023-08-07T05:15:25;99372.53;;;22.91;100.00
21234;BME280;10774;42.178;26.578;2023-08-07T05:17:51;99368.94;;;22.46;100.00
21234;BME280;10774;42.178;26.578;2023-08-07T05:20:17;99376.91;;;22.41;100.00
21234;BME280;10774;42.178;26.578;2023-08-07T05:22:43;99368.94;;;22.76;100.00
21234;BME280;10774;42.178;26.578;2023-08-07T05:25:09;99381.66;;;23.13;100.00
21234;BME280;10774;42.178;26.578;2023-08-07T05:27:35;99372.06;;;23.23;100.00
21234;BME280;10774;42.178;26.578;2023-08-07T05:30:01;99372.38;;;23.14;100.00
21234;BME280;10774;42.178;26.578;2023-08-07T05:32:26;99370.75;;;22.83;100.00
21234;BME280;10774;42.178;26.578;2023-08-07T05:34:52;99376.72;;;22.57;100.00
21234;BME280;10774;42.178;26.578;2023-08-07T05:37:17;99392.81;;;22.67;100.00
21234;BME280;10774;42.178;26.578;2023-08-07T05:39:43;99394.91;;;22.94;100.00
21234;BME280;10774;42.178;26.578;2023-08-07T05:42:09;99407.16;;;23.35;100.00
21234;BME280;10774;42.178;26.578;2023-08-07T05:44:35;99398.41;;;23.25;97.09
21234;BME280;10774;42.178;26.578;2023-08-07T05:47:01;99405.34;;;23.20;95.79
21234;BME280;10774;42.178;26.578;2023-08-07T05:49:26;99400.13;;;23.26;99.23
21234;BME280;10774;42.178;26.578;2023-08-07T05:51:53;99405.63;;;23.47;99.25
21234;BME280;10774;42.178;26.578;2023-08-07T05:54:18;99416.38;;;23.85;97.66
21234;BME280;10774;42.178;26.578;2023-08-07T05:56:43;99413.63;;;23.85;96.37
21234;BME280;10774;42.178;26.578;2023-08-07T05:59:09;99421.13;;;23.76;96.96
21234;BME280;10774;42.178;26.578;2023-08-07T06:01:34;99411.19;;;23.54;93.65
21234;BME280;10774;42.178;26.578;2023-08-07T06:04:02;99423.03;;;23.76;94.58
21234;BME280;10774;42.178;26.578;2023-08-07T06:06:27;99415.19;;;23.94;90.90
21234;BME280;10774;42.178;26.578;2023-08-07T06:08:56;99404.94;;;23.81;92.27
21234;BME280;10774;42.178;26.578;2023-08-07T06:11:21;99418.78;;;24.22;93.09
21234;BME280;10774;42.178;26.578;2023-08-07T06:13:46;99421.38;;;24.52;91.63
21234;BME280;10774;42.178;26.578;2023-08-07T06:16:12;99423.16;;;24.73;87.78
21234;BME280;10774;42.178;26.578;2023-08-07T06:18:38;99429.69;;;24.72;83.76
21234;BME280;10774;42.178;26.578;2023-08-07T06:21:03;99419.19;;;24.82;85.61
21234;BME280;10774;42.178;26.578;2023-08-07T06:23:32;99425.06;;;25.07;84.58
21234;BME280;10774;42.178;26.578;2023-08-07T06:25:57;99427.22;;;25.18;81.20
21234;BME280;10774;42.178;26.578;2023-08-07T06:28:23;99420.50;;;25.21;78.87
21234;BME280;10774;42.178;26.578;2023-08-07T06:30:48;99418.06;;;24.63;84.01
21234;BME280;10774;42.178;26.578;2023-08-07T06:33:13;99421.75;;;24.49;86.58
21234;BME280;10774;42.178;26.578;2023-08-07T06:35:39;99423.56;;;24.14;89.33
21234;BME280;10774;42.178;26.578;2023-08-07T06:38:05;99417.22;;;24.13;94.68
21234;BME280;10774;42.178;26.578;2023-08-07T06:40:31;99429.00;;;24.07;87.93
21234;BME280;10774;42.178;26.578;2023-08-07T06:42:56;99421.16;;;24.25;90.01
21234;BME280;10774;42.178;26.578;2023-08-07T06:45:22;99433.97;;;24.74;86.58
21234;BME280;10774;42.178;26.578;2023-08-07T06:47:47;99423.63;;;25.11;83.15
21234;BME280;10774;42.178;26.578;2023-08-07T06:50:13;99438.50;;;25.37;79.04
21234;BME280;10774;42.178;26.578;2023-08-07T06:52:39;99429.78;;;24.50;77.64
21234;BME280;10774;42.178;26.578;2023-08-07T06:55:05;99447.63;;;25.02;73.88
21234;BME280;10774;42.178;26.578;2023-08-07T06:57:31;99441.38;;;25.15;69.65
21234;BME280;10774;42.178;26.578;2023-08-07T06:59:56;99441.13;;;24.75;69.54
21234;BME280;10774;42.178;26.578;2023-08-07T07:02:22;99446.47;;;24.84;75.45
21234;BME280;10774;42.178;26.578;2023-08-07T07:04:47;99434.53;;;24.63;70.30
21234;BME280;10774;42.178;26.578;2023-08-07T07:07:12;99437.97;;;24.44;71.46
21234;BME280;10774;42.178;26.578;2023-08-07T07:09:38;99430.84;;;24.84;73.80
21234;BME280;10774;42.178;26.578;2023-08-07T07:12:04;99447.50;;;24.83;70.45
21234;BME280;10774;42.178;26.578;2023-08-07T07:14:29;99447.31;;;24.84;69.75
21234;BME280;10774;42.178;26.578;2023-08-07T07:16:54;99444.66;;;24.63;69.29
21234;BME280;10774;42.178;26.578;2023-08-07T07:19:20;99433.38;;;24.51;70.55
21234;BME280;10774;42.178;26.578;2023-08-07T07:21:45;99440.78;;;25.26;73.94
21234;BME280;10774;42.178;26.578;2023-08-07T07:24:11;99454.41;;;25.54;68.45
21234;BME280;10774;42.178;26.578;2023-08-07T07:26:36;99449.06;;;25.40;68.54
21234;BME280;10774;42.178;26.578;2023-08-07T07:29:02;99445.44;;;24.57;67.51
21234;BME280;10774;42.178;26.578;2023-08-07T07:31:27;99441.22;;;25.30;65.54
21234;BME280;10774;42.178;26.578;2023-08-07T07:33:53;99443.31;;;25.21;64.71
21234;BME280;10774;42.178;26.578;2023-08-07T07:36:18;99450.34;;;24.96;65.98
21234;BME280;10774;42.178;26.578;2023-08-07T07:38:45;99443.09;;;25.23;69.15
21234;BME280;10774;42.178;26.578;2023-08-07T07:41:12;99433.25;;;25.42;66.39
21234;BME280;10774;42.178;26.578;2023-08-07T07:43:37;99448.34;;;25.11;68.16
21234;BME280;10774;42.178;26.578;2023-08-07T07:46:03;99441.88;;;25.32;68.62
21234;BME280;10774;42.178;26.578;2023-08-07T07:48:29;99445.63;;;25.24;66.64
21234;BME280;10774;42.178;26.578;2023-08-07T07:51:03;99443.84;;;25.58;66.04
21234;BME280;10774;42.178;26.578;2023-08-07T07:53:29;99450.31;;;26.05;62.73
21234;BME280;10774;42.178;26.578;2023-08-07T07:55:55;99448.59;;;26.30;61.73
21234;BME280;10774;42.178;26.578;2023-08-07T07:58:21;99441.66;;;26.48;60.64
21234;BME280;10774;42.178;26.578;2023-08-07T08:00:47;99460.47;;;26.11;59.59
21234;BME280;10774;42.178;26.578;2023-08-07T08:03:12;99455.34;;;25.81;58.07
21234;BME280;10774;42.178;26.578;2023-08-07T08:05:38;99444.22;;;25.42;59.31
21234;BME280;10774;42.178;26.578;2023-08-07T08:08:05;99439.28;;;25.78;61.47
21234;BME280;10774;42.178;26.578;2023-08-07T08:10:32;99449.03;;;26.01;57.86
21234;BME280;10774;42.178;26.578;2023-08-07T08:12:57;99449.44;;;25.98;55.49
21234;BME280;10774;42.178;26.578;2023-08-07T08:15:22;99447.75;;;25.97;55.71
21234;BME280;10774;42.178;26.578;2023-08-07T08:17:48;99451.56;;;25.96;55.44
21234;BME280;10774;42.178;26.578;2023-08-07T08:20:14;99451.56;;;26.36;53.76
21234;BME280;10774;42.178;26.578;2023-08-07T08:22:47;99450.72;;;26.62;53.92
21234;BME280;10774;42.178;26.578;2023-08-07T08:25:13;99453.84;;;26.92;52.82
21234;BME280;10774;42.178;26.578;2023-08-07T08:27:39;99447.78;;;26.50;52.28
21234;BME280;10774;42.178;26.578;2023-08-07T08:30:07;99458.78;;;26.37;53.89
21234;BME280;10774;42.178;26.578;2023-08-07T08:32:33;99454.75;;;26.59;52.05
21234;BME280;10774;42.178;26.578;2023-08-07T08:34:59;99450.28;;;26.84;50.23
21234;BME280;10774;42.178;26.578;2023-08-07T08:37:25;99460.47;;;26.51;51.00
21234;BME280;10774;42.178;26.578;2023-08-07T08:39:50;99450.63;;;27.15;51.77
21234;BME280;10774;42.178;26.578;2023-08-07T08:42:16;99443.72;;;27.44;50.62
21234;BME280;10774;42.178;26.578;2023-08-07T08:44:55;99458.66;;;27.61;48.98
21234;BME280;10774;42.178;26.578;2023-08-07T08:47:21;99452.91;;;27.69;48.93
21234;BME280;10774;42.178;26.578;2023-08-07T08:49:50;99463.63;;;27.46;47.90
21234;BME280;10774;42.178;26.578;2023-08-07T08:52:17;99454.66;;;27.57;46.17
21234;BME280;10774;42.178;26.578;2023-08-07T08:54:43;99463.13;;;27.62;46.77
21234;BME280;10774;42.178;26.578;2023-08-07T08:57:09;99450.03;;;27.51;46.39
21234;BME280;10774;42.178;26.578;2023-08-07T08:59:37;99447.56;;;27.36;46.45
21234;BME280;10774;42.178;26.578;2023-08-07T09:02:04;99445.47;;;27.31;47.33
21234;BME280;10774;42.178;26.578;2023-08-07T09:04:29;99454.63;;;27.70;46.68
21234;BME280;10774;42.178;26.578;2023-08-07T09:06:55;99450.22;;;27.11;46.58
21234;BME280;10774;42.178;26.578;2023-08-07T09:09:22;99446.72;;;27.35;45.28
21234;BME280;10774;42.178;26.578;2023-08-07T09:11:48;99439.88;;;27.45;44.68
21234;BME280;10774;42.178;26.578;2023-08-07T09:14:21;99444.84;;;27.68;45.38
21234;BME280;10774;42.178;26.578;2023-08-07T09:16:48;99454.16;;;27.80;44.30
21234;BME280;10774;42.178;26.578;2023-08-07T09:19:14;99431.59;;;27.90;43.50
21234;BME280;10774;42.178;26.578;2023-08-07T09:21:39;99436.41;;;28.01;44.96
21234;BME280;10774;42.178;26.578;2023-08-07T09:24:05;99443.25;;;27.92;43.85
21234;BME280;10774;42.178;26.578;2023-08-07T09:26:32;99428.69;;;27.40;44.29
21234;BME280;10774;42.178;26.578;2023-08-07T09:28:59;99437.59;;;28.11;44.38
21234;BME280;10774;42.178;26.578;2023-08-07T09:31:25;99447.16;;;28.09;43.22
21234;BME280;10774;42.178;26.578;2023-08-07T09:34:01;99427.31;;;27.94;44.25
21234;BME280;10774;42.178;26.578;2023-08-07T09:36:30;99436.38;;;28.76;46.25
21234;BME280;10774;42.178;26.578;2023-08-07T09:38:55;99428.34;;;28.24;42.96
21234;BME280;10774;42.178;26.578;2023-08-07T09:41:21;99435.97;;;28.72;44.25
21234;BME280;10774;42.178;26.578;2023-08-07T09:43:47;99433.94;;;29.04;42.93
21234;BME280;10774;42.178;26.578;2023-08-07T09:46:12;99438.97;;;28.96;40.92
21234;BME280;10774;42.178;26.578;2023-08-07T09:48:42;99436.47;;;28.87;40.87
21234;BME280;10774;42.178;26.578;2023-08-07T09:51:08;99442.41;;;28.48;35.42
21234;BME280;10774;42.178;26.578;2023-08-07T09:53:34;99436.78;;;28.29;35.42
21234;BME280;10774;42.178;26.578;2023-08-07T09:56:01;99435.72;;;28.30;37.75
21234;BME280;10774;42.178;26.578;2023-08-07T09:58:28;99432.84;;;28.69;37.39
21234;BME280;10774;42.178;26.578;2023-08-07T10:00:54;99441.09;;;28.50;36.35
21234;BME280;10774;42.178;26.578;2023-08-07T10:03:22;99450.47;;;28.67;35.68
21234;BME280;10774;42.178;26.578;2023-08-07T10:05:48;99430.66;;;28.96;35.38
21234;BME280;10774;42.178;26.578;2023-08-07T10:08:14;99446.00;;;29.28;35.17
21234;BME280;10774;42.178;26.578;2023-08-07T10:10:40;99440.31;;;29.23;35.52
21234;BME280;10774;42.178;26.578;2023-08-07T10:13:06;99447.97;;;29.39;34.67
21234;BME280;10774;42.178;26.578;2023-08-07T10:15:33;99452.91;;;29.19;34.19
21234;BME280;10774;42.178;26.578;2023-08-07T10:18:00;99430.44;;;29.46;34.45
21234;BME280;10774;42.178;26.578;2023-08-07T10:20:27;99438.91;;;29.69;34.64
21234;BME280;10774;42.178;26.578;2023-08-07T10:22:57;99444.69;;;30.21;32.24
21234;BME280;10774;42.178;26.578;2023-08-07T10:25:26;99432.56;;;29.80;32.22
21234;BME280;10774;42.178;26.578;2023-08-07T10:27:53;99421.16;;;30.00;33.18
21234;BME280;10774;42.178;26.578;2023-08-07T10:30:21;99431.88;;;29.97;33.56
21234;BME280;10774;42.178;26.578;2023-08-07T10:32:47;99426.81;;;30.59;35.00
21234;BME280;10774;42.178;26.578;2023-08-07T10:35:32;99425.84;;;30.77;32.47
21234;BME280;10774;42.178;26.578;2023-08-07T10:38:08;99425.47;;;30.50;32.21
21234;BME280;10774;42.178;26.578;2023-08-07T10:40:34;99417.16;;;30.61;31.62
21234;BME280;10774;42.178;26.578;2023-08-07T10:43:19;99421.00;;;30.95;31.58
21234;BME280;10774;42.178;26.578;2023-08-07T10:45:44;99414.63;;;30.60;31.11
21234;BME280;10774;42.178;26.578;2023-08-07T10:48:17;99408.34;;;30.53;30.06
21234;BME280;10774;42.178;26.578;2023-08-07T10:56:38;99418.47;;;30.12;29.97
21234;BME280;10774;42.178;26.578;2023-08-07T10:59:10;99428.59;;;29.88;31.02
21234;BME280;10774;42.178;26.578;2023-08-07T11:04:12;99409.44;;;30.63;34.27
21234;BME280;10774;42.178;26.578;2023-08-07T11:06:39;99411.97;;;29.76;32.02
21234;BME280;10774;42.178;26.578;2023-08-07T11:09:06;99401.59;;;30.25;32.42
21234;BME280;10774;42.178;26.578;2023-08-07T11:11:46;99398.56;;;31.09;34.10
21234;BME280;10774;42.178;26.578;2023-08-07T11:14:16;99389.47;;;30.38;31.25
21234;BME280;10774;42.178;26.578;2023-08-07T11:16:42;99395.34;;;30.41;31.58
21234;BME280;10774;42.178;26.578;2023-08-07T11:19:09;99384.91;;;31.19;32.16
21234;BME280;10774;42.178;26.578;2023-08-07T11:21:35;99393.44;;;30.30;31.73
21234;BME280;10774;42.178;26.578;2023-08-07T11:24:01;99387.47;;;31.09;32.41
21234;BME280;10774;42.178;26.578;2023-08-07T11:26:26;99387.09;;;31.74;30.23
21234;BME280;10774;42.178;26.578;2023-08-07T11:28:53;99380.41;;;32.04;28.95
21234;BME280;10774;42.178;26.578;2023-08-07T11:31:19;99379.19;;;31.66;31.09
21234;BME280;10774;42.178;26.578;2023-08-07T11:33:45;99376.47;;;31.14;30.11
21234;BME280;10774;42.178;26.578;2023-08-07T11:36:14;99364.63;;;31.30;29.92
21234;BME280;10774;42.178;26.578;2023-08-07T11:38:43;99378.03;;;31.95;32.03
21234;BME280;10774;42.178;26.578;2023-08-07T11:41:10;99376.91;;;31.91;29.75
21234;BME280;10774;42.178;26.578;2023-08-07T11:43:36;99365.44;;;32.55;32.63
21234;BME280;10774;42.178;26.578;2023-08-07T11:46:07;99366.78;;;32.74;31.89
21234;BME280;10774;42.178;26.578;2023-08-07T11:48:36;99364.47;;;33.32;32.04
21234;BME280;10774;42.178;26.578;2023-08-07T11:51:03;99370.09;;;33.37;28.71
21234;BME280;10774;42.178;26.578;2023-08-07T11:53:39;99358.59;;;33.50;30.34
21234;BME280;10774;42.178;26.578;2023-08-07T11:56:10;99362.75;;;33.75;31.45
21234;BME280;10774;42.178;26.578;2023-08-07T11:58:40;99356.38;;;33.03;28.90
21234;BME280;10774;42.178;26.578;2023-08-07T12:01:10;99348.41;;;32.90;27.44
21234;BME280;10774;42.178;26.578;2023-08-07T12:03:37;99356.22;;;33.15;27.86
21234;BME280;10774;42.178;26.578;2023-08-07T12:06:05;99351.31;;;32.23;26.95
21234;BME280;10774;42.178;26.578;2023-08-07T12:08:32;99351.63;;;32.10;27.63
21234;BME280;10774;42.178;26.578;2023-08-07T12:11:01;99344.03;;;31.55;29.13
21234;BME280;10774;42.178;26.578;2023-08-07T12:13:27;99362.09;;;31.57;27.93
21234;BME280;10774;42.178;26.578;2023-08-07T12:15:56;99341.38;;;31.93;28.96
21234;BME280;10774;42.178;26.578;2023-08-07T12:18:23;99361.28;;;32.58;27.65
21234;BME280;10774;42.178;26.578;2023-08-07T12:20:50;99343.06;;;32.28;27.96
21234;BME280;10774;42.178;26.578;2023-08-07T12:23:17;99349.66;;;32.61;27.81
21234;BME280;10774;42.178;26.578;2023-08-07T12:25:43;99345.34;;;32.70;29.12
21234;BME280;10774;42.178;26.578;2023-08-07T12:28:08;99346.25;;;32.75;29.56
21234;BME280;10774;42.178;26.578;2023-08-07T12:30:34;99350.38;;;33.12;29.77
21234;BME280;10774;42.178;26.578;2023-08-07T12:33:00;99349.19;;;33.56;29.97
21234;BME280;10774;42.178;26.578;2023-08-07T12:35:28;99354.31;;;33.43;28.67
21234;BME280;10774;42.178;26.578;2023-08-07T12:37:53;99337.66;;;33.70;29.36
21234;BME280;10774;42.178;26.578;2023-08-07T12:40:18;99347.84;;;33.91;30.39
21234;BME280;10774;42.178;26.578;2023-08-07T12:42:46;99347.88;;;33.15;29.26
21234;BME280;10774;42.178;26.578;2023-08-07T12:45:11;99337.19;;;33.83;31.13
21234;BME280;10774;42.178;26.578;2023-08-07T12:47:37;99341.34;;;34.45;29.98
21234;BME280;10774;42.178;26.578;2023-08-07T12:50:03;99345.28;;;34.49;26.19
21234;BME280;10774;42.178;26.578;2023-08-07T12:52:28;99344.09;;;34.92;29.83
21234;BME280;10774;42.178;26.578;2023-08-07T12:54:54;99347.09;;;34.33;26.14